invalid date format, no / or - is used, can not process this file use demodata - debug = METAR luchtvaart weer gegevens      EHAM Amsterdam Schiphol
 X  Sluit METAR luchtvaart weer gegevens      EHAM Amsterdam Schiphol

Temperatuur

2°C Temperatuur

1°C Dauwpunt

93% Vochtigheid



Wind

 3 KM/U

 2 MPH

 1 M/S

 2 KTS



150°
Zuid Zuid
Oost
Huidig weer

Helder Helder
Luchtdruk 1020.92 (hPa) - 30.15 (inHg)
Zicht 6.2 (mile) - 10 (km)
Vliegveld
Vliegveld code EHAM

Locatie Amsterdam Schiphol 80 (km)

Metar:
EHAM 041855Z 15002KT CAVOK 02/01 Q1021 BECMG FM2030 0500 FG

Tijd: 04-12-2019 19:55 CET